createdAt,value
2023-05-12T00:02:22.727Z,82.44
2023-05-12T00:04:49.285Z,82.84
2023-05-12T00:07:15.890Z,82.68
2023-05-12T00:09:42.475Z,82.64
2023-05-12T00:12:09.703Z,82.89
2023-05-12T00:14:40.418Z,82.82
2023-05-12T00:17:07.057Z,83.03
2023-05-12T00:19:36.616Z,83.14
2023-05-12T00:22:03.388Z,83.58
2023-05-12T00:24:30.680Z,83.51
2023-05-12T00:26:57.188Z,83.62
2023-05-12T00:29:23.722Z,83.52
2023-05-12T00:31:50.304Z,83.62
2023-05-12T00:34:16.857Z,83.84
2023-05-12T00:36:43.574Z,83.84
2023-05-12T00:39:10.183Z,83.99
2023-05-12T00:41:36.738Z,83.90
2023-05-12T00:44:05.051Z,84.04
2023-05-12T00:46:31.726Z,84.07
2023-05-12T00:48:58.974Z,83.91
2023-05-12T00:51:26.576Z,84.13
2023-05-12T00:53:53.128Z,84.42
2023-05-12T00:56:19.791Z,84.35
2023-05-12T00:58:47.030Z,84.30
2023-05-12T01:01:13.629Z,84.48
2023-05-12T01:03:40.359Z,84.37
2023-05-12T01:06:22.141Z,84.43
2023-05-12T01:08:48.834Z,84.53
2023-05-12T01:11:15.728Z,84.59
2023-05-12T01:13:42.231Z,84.49
2023-05-12T01:16:12.529Z,84.81
2023-05-12T01:18:41.442Z,84.54
2023-05-12T01:21:08.817Z,84.85
2023-05-12T01:23:39.909Z,84.99
2023-05-12T01:26:10.346Z,85.04
2023-05-12T01:28:37.716Z,85.19
2023-05-12T01:31:06.748Z,85.07
2023-05-12T01:33:34.305Z,85.06
2023-05-12T01:36:00.807Z,85.35
2023-05-12T01:38:27.563Z,85.19
2023-05-12T01:40:53.996Z,85.47
2023-05-12T01:43:22.165Z,85.49
2023-05-12T01:45:48.948Z,85.42
2023-05-12T01:48:15.399Z,85.34
2023-05-12T01:50:42.435Z,85.63
2023-05-12T01:53:10.456Z,85.67
2023-05-12T01:55:37.289Z,85.49
2023-05-12T01:58:04.107Z,85.65
2023-05-12T02:00:30.605Z,85.85
2023-05-12T02:02:57.134Z,85.90
2023-05-12T02:05:23.623Z,85.85
2023-05-12T02:07:50.137Z,85.88
2023-05-12T02:10:16.897Z,86.11
2023-05-12T02:12:43.437Z,86.00
2023-05-12T02:15:10.240Z,86.01
2023-05-12T02:17:36.829Z,85.84
2023-05-12T02:20:05.207Z,86.11
2023-05-12T02:22:31.567Z,86.20
2023-05-12T02:24:58.057Z,86.28
2023-05-12T02:27:24.553Z,86.03
2023-05-12T02:29:51.196Z,86.19
2023-05-12T02:32:17.576Z,86.13
2023-05-12T02:34:43.968Z,86.16
2023-05-12T02:37:10.368Z,86.20
2023-05-12T02:39:36.885Z,86.24
2023-05-12T02:42:03.535Z,86.05
2023-05-12T02:44:29.899Z,85.98
2023-05-12T02:46:57.936Z,86.05
2023-05-12T02:49:24.349Z,86.41
2023-05-12T02:51:50.771Z,86.29
2023-05-12T02:54:17.192Z,86.48
2023-05-12T02:56:43.570Z,86.38
2023-05-12T02:59:09.982Z,86.58
2023-05-12T03:01:36.508Z,86.56
2023-05-12T03:04:03.066Z,86.40
2023-05-12T03:06:30.171Z,86.51
2023-05-12T03:08:56.554Z,86.39
2023-05-12T03:11:23.114Z,86.52
2023-05-12T03:13:49.490Z,86.33
2023-05-12T03:16:18.933Z,86.61
2023-05-12T03:18:46.054Z,86.47
2023-05-12T03:21:13.046Z,86.44
2023-05-12T03:23:39.478Z,86.66
2023-05-12T03:26:05.974Z,86.58
2023-05-12T03:28:32.379Z,86.78
2023-05-12T03:30:58.877Z,86.80
2023-05-12T03:33:25.271Z,86.88
2023-05-12T03:35:51.717Z,86.85
2023-05-12T03:38:18.163Z,86.60
2023-05-12T03:40:44.570Z,86.66
2023-05-12T03:43:10.903Z,86.68
2023-05-12T03:45:37.282Z,86.99
2023-05-12T03:48:03.868Z,86.83
2023-05-12T03:50:30.326Z,86.93
2023-05-12T03:52:56.809Z,86.93
2023-05-12T03:55:23.301Z,86.96
2023-05-12T03:57:50.180Z,86.92
2023-05-12T04:00:17.361Z,86.75
2023-05-12T04:02:44.100Z,86.84
2023-05-12T04:05:10.905Z,86.77
2023-05-12T04:07:37.360Z,86.90
2023-05-12T04:10:04.133Z,87.08
2023-05-12T04:12:30.624Z,86.78
2023-05-12T04:14:57.670Z,86.92
2023-05-12T04:17:24.085Z,86.99
2023-05-12T04:19:50.576Z,86.79
2023-05-12T04:22:16.943Z,87.30
2023-05-12T04:24:43.320Z,87.26
2023-05-12T04:27:09.724Z,87.04
2023-05-12T04:29:36.307Z,86.96
2023-05-12T04:32:03.050Z,87.07
2023-05-12T04:34:29.494Z,86.99
2023-05-12T04:36:55.867Z,87.22
2023-05-12T04:39:22.321Z,86.99
2023-05-12T04:41:48.737Z,86.89
2023-05-12T04:44:15.586Z,87.06
2023-05-12T04:46:43.152Z,87.04
2023-05-12T04:49:09.644Z,87.15
2023-05-12T04:51:42.045Z,87.32
2023-05-12T04:54:11.792Z,87.21
2023-05-12T04:56:38.443Z,87.25
2023-05-12T04:59:04.822Z,86.83
2023-05-12T05:01:31.477Z,87.31
2023-05-12T05:03:59.557Z,87.06
2023-05-12T05:06:26.002Z,87.17
2023-05-12T05:08:53.136Z,87.17
2023-05-12T05:11:19.561Z,87.27
2023-05-12T05:13:45.994Z,87.11
2023-05-12T05:16:12.551Z,87.06
2023-05-12T05:18:41.683Z,87.01
2023-05-12T05:21:08.178Z,86.82
2023-05-12T05:23:34.609Z,86.78
2023-05-12T05:26:00.991Z,87.03
2023-05-12T05:28:27.382Z,87.04
2023-05-12T05:30:53.764Z,86.99
2023-05-12T05:33:20.181Z,86.84
2023-05-12T05:35:47.985Z,86.66
2023-05-12T05:38:14.689Z,86.96
2023-05-12T05:40:52.272Z,87.00
2023-05-12T05:43:19.790Z,86.76
2023-05-12T05:45:46.300Z,86.71
2023-05-12T05:48:12.822Z,86.82
2023-05-12T05:50:39.308Z,86.86
2023-05-12T05:53:06.650Z,86.90
2023-05-12T05:55:33.787Z,86.74
2023-05-12T05:58:00.193Z,86.49
2023-05-12T06:00:27.482Z,86.53
2023-05-12T06:02:54.023Z,86.49
2023-05-12T06:05:21.035Z,86.52
2023-05-12T06:07:47.707Z,86.48
2023-05-12T06:10:14.160Z,86.58
2023-05-12T06:12:41.119Z,86.44
2023-05-12T06:15:09.045Z,86.56
2023-05-12T06:17:35.570Z,86.53
2023-05-12T06:20:02.725Z,86.49
2023-05-12T06:22:29.163Z,86.64
2023-05-12T06:24:55.593Z,86.40
2023-05-12T06:27:23.494Z,86.30
2023-05-12T06:29:51.586Z,86.40
2023-05-12T06:32:20.298Z,86.25
2023-05-12T06:34:46.684Z,86.35
2023-05-12T06:37:13.117Z,86.29
2023-05-12T06:39:39.609Z,85.97
2023-05-12T06:42:06.323Z,86.09
2023-05-12T06:44:32.709Z,85.99
2023-05-12T06:46:59.278Z,85.76
2023-05-12T06:49:25.684Z,85.87
2023-05-12T06:51:52.144Z,85.86
2023-05-12T06:54:18.660Z,85.64
2023-05-12T06:56:45.105Z,85.56
2023-05-12T06:59:11.475Z,85.60
2023-05-12T07:01:38.449Z,85.46
2023-05-12T07:04:05.062Z,85.49
2023-05-12T07:06:33.536Z,85.64
2023-05-12T07:09:00.169Z,85.46
2023-05-12T07:11:26.799Z,85.07
2023-05-12T07:13:54.532Z,85.19
2023-05-12T07:16:22.863Z,85.36
2023-05-12T07:18:49.367Z,85.11
2023-05-12T07:21:15.777Z,85.20
2023-05-12T07:23:42.289Z,84.97
2023-05-12T07:26:09.090Z,85.07
2023-05-12T07:28:36.597Z,85.07
2023-05-12T07:31:04.207Z,84.84
2023-05-12T07:33:31.107Z,84.61
2023-05-12T07:35:57.677Z,84.83
2023-05-12T07:38:24.179Z,84.41
2023-05-12T07:40:51.368Z,84.11
2023-05-12T07:43:18.020Z,84.31
2023-05-12T07:45:45.207Z,83.96
2023-05-12T07:48:11.873Z,83.89
2023-05-12T07:50:38.746Z,83.99
2023-05-12T07:53:08.244Z,83.47
2023-05-12T07:55:35.713Z,83.33
2023-05-12T07:58:02.300Z,82.99
2023-05-12T08:00:28.859Z,82.80
2023-05-12T08:02:55.690Z,82.46
2023-05-12T08:05:23.513Z,82.24
2023-05-12T08:07:51.547Z,82.01
2023-05-12T08:10:19.346Z,81.84
2023-05-12T08:12:46.597Z,82.21
2023-05-12T08:15:13.220Z,81.66
2023-05-12T08:17:39.766Z,81.63
2023-05-12T08:20:06.895Z,81.38
2023-05-12T08:22:33.487Z,81.62
2023-05-12T08:24:59.930Z,81.64
2023-05-12T08:27:26.430Z,81.28
2023-05-12T08:29:52.915Z,81.32
2023-05-12T08:32:19.471Z,81.15
2023-05-12T08:34:46.068Z,80.98
2023-05-12T08:37:12.627Z,81.06
2023-05-12T08:39:39.125Z,80.81
2023-05-12T08:42:18.722Z,80.76
2023-05-12T08:44:46.431Z,80.41
2023-05-12T08:47:14.601Z,79.44
2023-05-12T08:49:44.074Z,79.02
2023-05-12T08:52:12.371Z,79.63
2023-05-12T08:54:52.194Z,79.88
2023-05-12T08:57:19.708Z,80.40
2023-05-12T08:59:47.163Z,80.52
2023-05-12T09:02:17.098Z,80.57
2023-05-12T09:04:43.755Z,80.66
2023-05-12T09:07:10.985Z,80.59
2023-05-12T09:09:38.541Z,81.10
2023-05-12T09:12:11.558Z,80.71
2023-05-12T09:14:39.909Z,80.67
2023-05-12T09:17:06.865Z,80.51
2023-05-12T09:19:34.334Z,80.27
2023-05-12T09:22:01.635Z,79.96
2023-05-12T09:24:36.337Z,79.63
2023-05-12T09:27:03.799Z,78.97
2023-05-12T09:29:35.887Z,78.27
2023-05-12T09:32:08.821Z,77.90
2023-05-12T09:34:38.349Z,77.76
2023-05-12T09:37:06.535Z,77.47
2023-05-12T09:39:33.641Z,77.11
2023-05-12T09:42:00.437Z,76.73
2023-05-12T09:44:29.341Z,76.49
2023-05-12T09:46:55.961Z,76.77
2023-05-12T09:49:27.167Z,77.14
2023-05-12T09:51:56.351Z,77.79
2023-05-12T09:54:29.730Z,77.73
2023-05-12T09:57:01.493Z,77.87
2023-05-12T09:59:32.750Z,78.13
2023-05-12T10:02:00.986Z,78.39
2023-05-12T10:04:30.049Z,78.56
2023-05-12T10:06:58.878Z,78.46
2023-05-12T10:09:33.973Z,78.46
2023-05-12T10:12:03.044Z,78.17
2023-05-12T10:14:29.953Z,77.97
2023-05-12T10:16:57.502Z,78.15
2023-05-12T10:19:25.785Z,77.89
2023-05-12T10:21:53.202Z,77.76
2023-05-12T10:24:21.049Z,77.74
2023-05-12T10:26:47.464Z,77.35
2023-05-12T10:29:15.649Z,77.59
2023-05-12T10:31:45.093Z,77.13
2023-05-12T10:34:17.804Z,76.94
2023-05-12T10:36:50.190Z,76.88
2023-05-12T10:39:17.321Z,76.84
2023-05-12T10:41:43.949Z,76.79
2023-05-12T10:44:10.845Z,76.82
2023-05-12T10:46:37.585Z,76.77
2023-05-12T10:49:08.548Z,76.66
2023-05-12T10:51:52.168Z,77.03
2023-05-12T10:54:21.469Z,77.00
2023-05-12T10:56:48.578Z,76.86
2023-05-12T10:59:25.347Z,77.03
2023-05-12T11:02:03.588Z,77.11
2023-05-12T11:05:00.383Z,77.01
2023-05-12T11:07:32.835Z,76.85
2023-05-12T11:10:02.002Z,76.71
2023-05-12T11:12:33.020Z,76.55
2023-05-12T11:15:01.684Z,76.70
2023-05-12T11:17:28.338Z,76.52
2023-05-12T11:19:55.443Z,76.31
2023-05-12T11:22:23.434Z,76.10
2023-05-12T11:24:51.327Z,76.03
2023-05-12T11:27:19.823Z,76.01
2023-05-12T11:29:56.565Z,75.91
2023-05-12T11:32:24.672Z,75.71
2023-05-12T11:34:51.211Z,75.81
2023-05-12T11:37:21.122Z,75.85
2023-05-12T11:39:48.429Z,75.71
2023-05-12T11:42:17.621Z,75.76
2023-05-12T11:44:49.506Z,75.49
2023-05-12T11:47:17.361Z,75.47
2023-05-12T11:49:56.277Z,75.43
2023-05-12T11:52:23.898Z,75.43
2023-05-12T11:54:52.072Z,75.14
2023-05-12T11:57:37.929Z,75.06
2023-05-12T12:00:07.765Z,74.48
2023-05-12T12:02:35.912Z,74.21
2023-05-12T12:05:03.073Z,74.24
2023-05-12T12:07:34.762Z,74.23
2023-05-12T12:10:19.778Z,74.01
2023-05-12T12:12:46.434Z,74.10
2023-05-12T12:15:14.834Z,74.06
2023-05-12T12:17:41.295Z,74.35
2023-05-12T12:20:08.929Z,74.51
2023-05-12T12:22:35.660Z,74.33
2023-05-12T12:25:03.109Z,74.07
2023-05-12T12:27:29.785Z,73.94
2023-05-12T12:29:56.228Z,73.77
2023-05-12T12:32:22.684Z,73.68
2023-05-12T12:34:49.328Z,73.50
2023-05-12T12:37:16.214Z,73.16
2023-05-12T12:39:42.803Z,73.13
2023-05-12T12:42:09.456Z,72.92
2023-05-12T12:44:36.008Z,73.24
2023-05-12T12:47:02.682Z,73.44
2023-05-12T12:49:29.075Z,73.49
2023-05-12T12:51:55.860Z,73.78
2023-05-12T12:54:22.554Z,73.95
2023-05-12T12:56:48.979Z,74.17
2023-05-12T12:59:15.621Z,74.50
2023-05-12T13:01:42.170Z,74.54
2023-05-12T13:04:08.582Z,74.73
2023-05-12T13:06:34.977Z,74.68
2023-05-12T13:09:01.604Z,74.86
2023-05-12T13:11:28.197Z,74.73
2023-05-12T13:13:54.582Z,74.70
2023-05-12T13:16:22.736Z,75.13
2023-05-12T13:18:49.339Z,75.53
2023-05-12T13:21:15.883Z,75.71
2023-05-12T13:23:42.299Z,75.86
2023-05-12T13:26:08.928Z,76.10
2023-05-12T13:28:35.329Z,76.11
2023-05-12T13:31:01.740Z,76.33
2023-05-12T13:33:29.359Z,76.33
2023-05-12T13:35:55.789Z,76.30
2023-05-12T13:38:22.432Z,76.39
2023-05-12T13:40:48.914Z,76.16
2023-05-12T13:43:16.270Z,76.13
2023-05-12T13:45:42.861Z,76.33
2023-05-12T13:48:09.568Z,76.11
2023-05-12T13:50:36.062Z,76.17
2023-05-12T13:53:02.442Z,76.14
2023-05-12T13:55:28.901Z,75.98
2023-05-12T13:57:55.252Z,76.19
2023-05-12T14:00:22.092Z,76.12
2023-05-12T14:02:48.815Z,75.88
2023-05-12T14:05:16.828Z,75.72
2023-05-12T14:07:43.302Z,75.53
2023-05-12T14:10:10.537Z,75.36
2023-05-12T14:12:37.132Z,75.41
2023-05-12T14:15:19.828Z,75.15
2023-05-12T14:17:50.425Z,75.22
2023-05-12T14:20:17.043Z,74.73
2023-05-12T14:22:43.798Z,74.86
2023-05-12T14:25:10.330Z,74.79
2023-05-12T14:27:36.761Z,74.65
2023-05-12T14:30:04.026Z,74.71
2023-05-12T14:32:30.563Z,74.41
2023-05-12T14:34:57.245Z,74.50
2023-05-12T14:37:23.708Z,74.38
2023-05-12T14:39:50.332Z,74.19
2023-05-12T14:42:17.949Z,74.40
2023-05-12T14:44:44.309Z,74.28
2023-05-12T14:47:10.811Z,74.18
2023-05-12T14:49:37.270Z,73.99
2023-05-12T14:52:03.833Z,74.00
2023-05-12T14:54:30.442Z,73.92
2023-05-12T14:56:58.682Z,73.73
2023-05-12T14:59:25.125Z,73.45
2023-05-12T15:01:51.679Z,73.34
2023-05-12T15:04:18.086Z,73.24
2023-05-12T15:06:44.517Z,73.04
2023-05-12T15:09:10.919Z,72.95
2023-05-12T15:11:37.733Z,73.08
2023-05-12T15:14:04.844Z,73.31
2023-05-12T15:16:33.091Z,73.46
2023-05-12T15:18:59.727Z,73.19
2023-05-12T15:21:26.372Z,73.21
2023-05-12T15:23:52.955Z,73.33
2023-05-12T15:26:31.989Z,73.29
2023-05-12T15:28:59.812Z,73.37
2023-05-12T15:31:28.707Z,73.20
2023-05-12T15:33:56.492Z,73.28
2023-05-12T15:36:23.221Z,73.44
2023-05-12T15:38:50.276Z,73.53
2023-05-12T15:41:16.682Z,73.33
2023-05-12T15:43:43.228Z,73.77
2023-05-12T15:46:10.938Z,73.63
2023-05-12T15:48:37.727Z,73.45
2023-05-12T15:51:04.425Z,73.38
2023-05-12T15:53:31.444Z,73.23
2023-05-12T15:56:05.135Z,73.29
2023-05-12T15:58:32.060Z,73.32
2023-05-12T16:00:58.941Z,73.25
2023-05-12T16:03:25.537Z,73.35
2023-05-12T16:05:53.846Z,73.52
2023-05-12T16:08:20.453Z,73.25
2023-05-12T16:10:46.878Z,73.08
2023-05-12T16:13:14.447Z,73.20
2023-05-12T16:15:41.712Z,73.29
2023-05-12T16:18:10.886Z,73.46
2023-05-12T16:20:38.051Z,73.07
2023-05-12T16:23:04.616Z,73.19
2023-05-12T16:25:31.137Z,73.28
2023-05-12T16:27:57.904Z,73.13
2023-05-12T16:30:24.771Z,72.95
2023-05-12T16:32:51.322Z,73.23
2023-05-12T16:35:17.889Z,72.98
2023-05-12T16:37:44.482Z,72.94
2023-05-12T16:40:11.209Z,73.18
2023-05-12T16:42:38.892Z,73.05
2023-05-12T16:45:07.855Z,72.99
2023-05-12T16:47:34.399Z,72.98
2023-05-12T16:50:00.826Z,73.09
2023-05-12T16:52:27.468Z,72.98
2023-05-12T16:54:56.380Z,72.95
2023-05-12T16:57:23.963Z,73.08
2023-05-12T16:59:50.544Z,73.03
2023-05-12T17:02:17.312Z,72.64
2023-05-12T17:04:44.647Z,73.02
2023-05-12T17:07:11.272Z,72.85
2023-05-12T17:09:37.833Z,72.93
2023-05-12T17:12:05.160Z,73.13
2023-05-12T17:14:31.601Z,73.25
2023-05-12T17:16:58.131Z,73.19
2023-05-12T17:19:24.614Z,73.12
2023-05-12T17:21:51.088Z,73.30
2023-05-12T17:24:17.705Z,73.44
2023-05-12T17:26:44.926Z,73.41
2023-05-12T17:29:11.449Z,73.67
2023-05-12T17:31:38.442Z,73.46
2023-05-12T17:34:04.892Z,73.62
2023-05-12T17:36:31.524Z,73.90
2023-05-12T17:38:57.951Z,74.23
2023-05-12T17:41:25.975Z,74.35
2023-05-12T17:43:53.727Z,74.42
2023-05-12T17:46:20.170Z,74.51
2023-05-12T17:48:46.636Z,74.82
2023-05-12T17:51:14.726Z,74.91
2023-05-12T17:53:41.145Z,74.89
2023-05-12T17:56:07.715Z,74.77
2023-05-12T17:58:34.238Z,75.13
2023-05-12T18:01:00.859Z,75.09
2023-05-12T18:03:27.406Z,75.38
2023-05-12T18:05:54.274Z,75.45
2023-05-12T18:08:21.460Z,75.33
2023-05-12T18:10:47.999Z,75.39
2023-05-12T18:13:15.688Z,75.81
2023-05-12T18:15:42.394Z,75.71
2023-05-12T18:18:10.045Z,75.77
2023-05-12T18:20:36.882Z,75.78
2023-05-12T18:23:03.343Z,75.92
2023-05-12T18:25:29.791Z,76.03
2023-05-12T18:27:56.405Z,75.90
2023-05-12T18:30:22.795Z,76.03
2023-05-12T18:32:49.475Z,76.18
2023-05-12T18:35:15.961Z,76.16
2023-05-12T18:37:42.504Z,76.39
2023-05-12T18:40:09.143Z,76.23
2023-05-12T18:42:36.100Z,76.37
2023-05-12T18:45:02.863Z,76.63
2023-05-12T18:47:29.334Z,76.57
2023-05-12T18:49:55.782Z,76.54
2023-05-12T18:52:22.188Z,76.69
2023-05-12T18:54:49.786Z,76.56
2023-05-12T18:57:16.871Z,76.65
2023-05-12T18:59:43.438Z,76.52
2023-05-12T19:02:10.447Z,76.79
2023-05-12T19:04:37.469Z,76.93
2023-05-12T19:07:06.370Z,76.74
2023-05-12T19:09:35.612Z,77.10
2023-05-12T19:12:03.526Z,77.02
2023-05-12T19:14:31.925Z,77.01
2023-05-12T19:16:58.589Z,77.04
2023-05-12T19:19:25.090Z,76.76
2023-05-12T19:21:52.159Z,76.98
2023-05-12T19:24:19.914Z,76.82
2023-05-12T19:26:46.343Z,77.13
2023-05-12T19:29:12.832Z,77.14
2023-05-12T19:31:39.347Z,77.01
2023-05-12T19:34:06.231Z,76.79
2023-05-12T19:36:32.913Z,76.95
2023-05-12T19:39:02.594Z,77.05
2023-05-12T19:41:29.267Z,76.76
2023-05-12T19:43:56.103Z,77.10
2023-05-12T19:46:22.829Z,76.90
2023-05-12T19:48:51.970Z,77.15
2023-05-12T19:51:18.531Z,77.06
2023-05-12T19:53:45.197Z,77.22
2023-05-12T19:56:11.664Z,77.27
2023-05-12T19:58:38.416Z,77.05
2023-05-12T20:01:05.094Z,77.34
2023-05-12T20:03:32.048Z,77.26
2023-05-12T20:05:58.932Z,77.14
2023-05-12T20:08:26.972Z,77.40
2023-05-12T20:10:53.786Z,77.12
2023-05-12T20:13:20.323Z,77.38
2023-05-12T20:15:46.781Z,77.40
2023-05-12T20:18:15.499Z,77.24
2023-05-12T20:20:43.300Z,77.08
2023-05-12T20:23:09.881Z,77.38
2023-05-12T20:25:36.670Z,77.46
2023-05-12T20:28:03.348Z,77.26
2023-05-12T20:30:29.954Z,77.46
2023-05-12T20:32:56.440Z,77.28
2023-05-12T20:35:23.392Z,77.41
2023-05-12T20:37:50.480Z,77.46
2023-05-12T20:40:17.546Z,77.60
2023-05-12T20:42:46.181Z,77.39
2023-05-12T20:45:13.817Z,77.66
2023-05-12T20:47:40.423Z,77.65
2023-05-12T20:50:08.273Z,77.74
2023-05-12T20:52:41.847Z,77.61
2023-05-12T20:55:09.583Z,77.84
2023-05-12T20:57:36.126Z,77.64
2023-05-12T21:00:02.724Z,77.68
2023-05-12T21:02:29.560Z,77.88
2023-05-12T21:04:56.510Z,77.87
2023-05-12T21:07:23.019Z,77.93
2023-05-12T21:09:49.863Z,78.16
2023-05-12T21:12:18.028Z,78.52
2023-05-12T21:14:45.227Z,78.51
2023-05-12T21:17:12.612Z,78.64
2023-05-12T21:19:40.204Z,78.67
2023-05-12T21:22:07.860Z,78.94
2023-05-12T21:24:34.555Z,79.05
2023-05-12T21:27:05.634Z,79.12
2023-05-12T21:29:33.429Z,78.97
2023-05-12T21:32:00.789Z,79.07
2023-05-12T21:34:27.938Z,79.15
2023-05-12T21:36:54.837Z,79.25
2023-05-12T21:39:22.102Z,79.25
2023-05-12T21:41:48.902Z,79.19
2023-05-12T21:44:15.397Z,79.31
2023-05-12T21:46:42.584Z,79.15
2023-05-12T21:49:09.186Z,79.38
2023-05-12T21:51:36.701Z,79.29
2023-05-12T21:54:03.603Z,79.43
2023-05-12T21:56:30.050Z,79.50
2023-05-12T21:58:56.979Z,79.65
2023-05-12T22:01:23.613Z,79.47
2023-05-12T22:03:50.209Z,79.53
2023-05-12T22:06:16.704Z,79.52
2023-05-12T22:08:43.392Z,79.68
2023-05-12T22:11:10.982Z,79.78
2023-05-12T22:13:37.447Z,79.83
2023-05-12T22:16:04.220Z,79.60
2023-05-12T22:18:30.791Z,79.73
2023-05-12T22:20:57.215Z,80.00
2023-05-12T22:23:23.799Z,80.02
2023-05-12T22:25:50.391Z,79.94
2023-05-12T22:28:16.887Z,80.04
2023-05-12T22:30:43.808Z,79.92
2023-05-12T22:33:10.242Z,79.95
2023-05-12T22:35:36.715Z,79.85
2023-05-12T22:38:03.254Z,79.94
2023-05-12T22:40:30.607Z,80.27
2023-05-12T22:42:57.098Z,80.23
2023-05-12T22:45:23.556Z,80.21
2023-05-12T22:47:50.031Z,80.41
2023-05-12T22:50:16.988Z,80.34
2023-05-12T22:52:43.585Z,80.45
2023-05-12T22:55:10.500Z,80.73
2023-05-12T22:57:38.589Z,80.64
2023-05-12T23:00:06.956Z,80.63
2023-05-12T23:02:33.493Z,81.07
2023-05-12T23:05:00.198Z,80.83
2023-05-12T23:07:26.924Z,81.00
2023-05-12T23:09:53.466Z,80.99
2023-05-12T23:12:19.910Z,81.27
2023-05-12T23:14:46.369Z,81.28
2023-05-12T23:17:12.775Z,81.09
2023-05-12T23:19:40.194Z,81.14
2023-05-12T23:22:06.657Z,81.43
2023-05-12T23:24:34.088Z,81.54
2023-05-12T23:27:00.949Z,81.49
2023-05-12T23:29:27.828Z,81.51
2023-05-12T23:31:54.423Z,81.55
2023-05-12T23:34:20.977Z,81.30
2023-05-12T23:36:47.506Z,81.42
2023-05-12T23:39:13.954Z,81.24
2023-05-12T23:41:40.400Z,81.30
2023-05-12T23:44:06.906Z,81.30
2023-05-12T23:46:33.361Z,81.57
2023-05-12T23:48:59.899Z,81.58
2023-05-12T23:51:26.352Z,81.39
2023-05-12T23:53:52.851Z,81.61
2023-05-12T23:56:19.392Z,81.44
2023-05-12T23:58:47.505Z,81.60
